sensor_id;sensor_type;location;lat;lon;timestamp;P1;durP1;ratioP1;P2;durP2;ratioP2
27424;SDS011;15244;49.088;11.886;2022-12-07T00:01:55;7.13;;;6.53;;
27424;SDS011;15244;49.088;11.886;2022-12-07T00:06:56;6.65;;;6.15;;
27424;SDS011;15244;49.088;11.886;2022-12-07T00:12:03;6.82;;;6.22;;
27424;SDS011;15244;49.088;11.886;2022-12-07T00:17:09;6.30;;;5.80;;
27424;SDS011;15244;49.088;11.886;2022-12-07T00:22:23;7.18;;;6.57;;
27424;SDS011;15244;49.088;11.886;2022-12-07T00:27:25;7.03;;;6.43;;
27424;SDS011;15244;49.088;11.886;2022-12-07T00:32:35;6.95;;;6.35;;
27424;SDS011;15244;49.088;11.886;2022-12-07T00:37:41;6.55;;;6.05;;
27424;SDS011;15244;49.088;11.886;2022-12-07T00:42:46;6.95;;;6.35;;
27424;SDS011;15244;49.088;11.886;2022-12-07T00:47:48;7.65;;;7.05;;
27424;SDS011;15244;49.088;11.886;2022-12-07T00:52:55;8.52;;;7.72;;
27424;SDS011;15244;49.088;11.886;2022-12-07T00:57:58;8.75;;;7.95;;
27424;SDS011;15244;49.088;11.886;2022-12-07T01:03:09;7.70;;;7.15;;
27424;SDS011;15244;49.088;11.886;2022-12-07T01:08:23;8.52;;;7.82;;
27424;SDS011;15244;49.088;11.886;2022-12-07T01:13:25;8.13;;;7.43;;
27424;SDS011;15244;49.088;11.886;2022-12-07T01:18:30;8.68;;;7.93;;
27424;SDS011;15244;49.088;11.886;2022-12-07T01:23:35;8.40;;;7.70;;
27424;SDS011;15244;49.088;11.886;2022-12-07T01:28:40;9.20;;;8.50;;
27424;SDS011;15244;49.088;11.886;2022-12-07T01:33:56;11.82;;;8.85;;
27424;SDS011;15244;49.088;11.886;2022-12-07T01:44:21;8.77;;;8.07;;
27424;SDS011;15244;49.088;11.886;2022-12-07T01:49:43;8.48;;;7.78;;
27424;SDS011;15244;49.088;11.886;2022-12-07T01:54:51;8.52;;;7.82;;
27424;SDS011;15244;49.088;11.886;2022-12-07T02:00:13;7.88;;;7.28;;
27424;SDS011;15244;49.088;11.886;2022-12-07T02:05:18;8.60;;;7.90;;
27424;SDS011;15244;49.088;11.886;2022-12-07T02:10:27;8.20;;;7.50;;
27424;SDS011;15244;49.088;11.886;2022-12-07T02:15:41;9.50;;;8.70;;
27424;SDS011;15244;49.088;11.886;2022-12-07T02:31:35;9.30;;;8.45;;
27424;SDS011;15244;49.088;11.886;2022-12-07T02:36:43;8.95;;;8.25;;
27424;SDS011;15244;49.088;11.886;2022-12-07T02:42:08;8.88;;;8.07;;
27424;SDS011;15244;49.088;11.886;2022-12-07T02:47:18;9.23;;;8.43;;
27424;SDS011;15244;49.088;11.886;2022-12-07T02:52:24;8.70;;;8.00;;
27424;SDS011;15244;49.088;11.886;2022-12-07T03:02:50;8.75;;;7.95;;
27424;SDS011;15244;49.088;11.886;2022-12-07T03:13:30;7.57;;;6.97;;
27424;SDS011;15244;49.088;11.886;2022-12-07T03:18:46;7.72;;;7.07;;
27424;SDS011;15244;49.088;11.886;2022-12-07T03:24:06;7.55;;;6.90;;
27424;SDS011;15244;49.088;11.886;2022-12-07T03:29:22;8.75;;;7.95;;
27424;SDS011;15244;49.088;11.886;2022-12-07T03:34:40;9.23;;;8.32;;
27424;SDS011;15244;49.088;11.886;2022-12-07T03:39:56;9.40;;;8.60;;
27424;SDS011;15244;49.088;11.886;2022-12-07T03:45:09;10.03;;;9.10;;
27424;SDS011;15244;49.088;11.886;2022-12-07T03:50:37;9.32;;;8.52;;
27424;SDS011;15244;49.088;11.886;2022-12-07T03:55:46;10.18;;;9.18;;
27424;SDS011;15244;49.088;11.886;2022-12-07T04:00:52;10.02;;;9.13;;
27424;SDS011;15244;49.088;11.886;2022-12-07T04:05:54;10.48;;;9.45;;
27424;SDS011;15244;49.088;11.886;2022-12-07T04:11:04;9.70;;;8.93;;
27424;SDS011;15244;49.088;11.886;2022-12-07T04:16:09;10.30;;;9.30;;
27424;SDS011;15244;49.088;11.886;2022-12-07T04:21:15;11.65;;;10.27;;
27424;SDS011;15244;49.088;11.886;2022-12-07T04:26:24;10.23;;;9.23;;
27424;SDS011;15244;49.088;11.886;2022-12-07T04:31:28;10.07;;;9.13;;
27424;SDS011;15244;49.088;11.886;2022-12-07T04:36:32;10.88;;;9.88;;
27424;SDS011;15244;49.088;11.886;2022-12-07T04:41:34;11.40;;;10.20;;
27424;SDS011;15244;49.088;11.886;2022-12-07T04:46:36;12.30;;;11.13;;
27424;SDS011;15244;49.088;11.886;2022-12-07T04:51:40;12.45;;;11.13;;
27424;SDS011;15244;49.088;11.886;2022-12-07T04:56:43;12.18;;;10.90;;
27424;SDS011;15244;49.088;11.886;2022-12-07T05:01:49;13.13;;;11.75;;
27424;SDS011;15244;49.088;11.886;2022-12-07T05:06:53;12.48;;;11.18;;
27424;SDS011;15244;49.088;11.886;2022-12-07T05:11:56;12.63;;;11.43;;
27424;SDS011;15244;49.088;11.886;2022-12-07T05:17:08;11.82;;;10.63;;
27424;SDS011;15244;49.088;11.886;2022-12-07T05:22:18;13.65;;;12.10;;
27424;SDS011;15244;49.088;11.886;2022-12-07T05:27:28;13.38;;;11.93;;
27424;SDS011;15244;49.088;11.886;2022-12-07T05:32:29;14.88;;;11.50;;
27424;SDS011;15244;49.088;11.886;2022-12-07T05:37:36;15.27;;;12.23;;
27424;SDS011;15244;49.088;11.886;2022-12-07T05:42:41;14.05;;;11.63;;
27424;SDS011;15244;49.088;11.886;2022-12-07T05:47:45;14.70;;;12.23;;
27424;SDS011;15244;49.088;11.886;2022-12-07T05:52:52;14.18;;;12.68;;
27424;SDS011;15244;49.088;11.886;2022-12-07T05:57:54;15.25;;;12.38;;
27424;SDS011;15244;49.088;11.886;2022-12-07T06:03:22;12.07;;;10.05;;
27424;SDS011;15244;49.088;11.886;2022-12-07T06:08:30;15.02;;;13.02;;
27424;SDS011;15244;49.088;11.886;2022-12-07T06:13:35;14.45;;;12.52;;
27424;SDS011;15244;49.088;11.886;2022-12-07T06:18:45;14.70;;;12.77;;
27424;SDS011;15244;49.088;11.886;2022-12-07T06:23:49;17.25;;;13.70;;
27424;SDS011;15244;49.088;11.886;2022-12-07T06:28:53;15.93;;;13.02;;
27424;SDS011;15244;49.088;11.886;2022-12-07T06:33:58;17.08;;;13.43;;
27424;SDS011;15244;49.088;11.886;2022-12-07T06:39:10;16.65;;;13.25;;
27424;SDS011;15244;49.088;11.886;2022-12-07T06:44:15;16.25;;;13.65;;
27424;SDS011;15244;49.088;11.886;2022-12-07T06:49:19;18.02;;;13.18;;
27424;SDS011;15244;49.088;11.886;2022-12-07T06:54:22;17.00;;;14.23;;
27424;SDS011;15244;49.088;11.886;2022-12-07T06:59:29;17.13;;;14.02;;
27424;SDS011;15244;49.088;11.886;2022-12-07T07:04:57;21.52;;;14.75;;
27424;SDS011;15244;49.088;11.886;2022-12-07T07:10:11;17.88;;;14.48;;
27424;SDS011;15244;49.088;11.886;2022-12-07T07:15:22;17.48;;;14.23;;
27424;SDS011;15244;49.088;11.886;2022-12-07T07:20:29;16.58;;;13.65;;
27424;SDS011;15244;49.088;11.886;2022-12-07T07:25:36;15.35;;;12.60;;
27424;SDS011;15244;49.088;11.886;2022-12-07T07:30:45;19.02;;;14.52;;
27424;SDS011;15244;49.088;11.886;2022-12-07T07:35:55;19.40;;;13.90;;
27424;SDS011;15244;49.088;11.886;2022-12-07T07:40:56;18.55;;;13.85;;
27424;SDS011;15244;49.088;11.886;2022-12-07T07:45:58;18.30;;;13.95;;
27424;SDS011;15244;49.088;11.886;2022-12-07T07:51:05;20.02;;;14.30;;
27424;SDS011;15244;49.088;11.886;2022-12-07T07:56:08;19.42;;;14.07;;
27424;SDS011;15244;49.088;11.886;2022-12-07T08:01:15;19.15;;;14.00;;
27424;SDS011;15244;49.088;11.886;2022-12-07T08:06:21;20.42;;;14.20;;
27424;SDS011;15244;49.088;11.886;2022-12-07T08:11:34;16.83;;;13.27;;
27424;SDS011;15244;49.088;11.886;2022-12-07T08:16:39;19.85;;;14.15;;
27424;SDS011;15244;49.088;11.886;2022-12-07T08:21:44;16.85;;;12.95;;
27424;SDS011;15244;49.088;11.886;2022-12-07T08:26:55;16.65;;;12.73;;
27424;SDS011;15244;49.088;11.886;2022-12-07T08:31:59;15.50;;;13.10;;
27424;SDS011;15244;49.088;11.886;2022-12-07T08:37:09;17.85;;;13.77;;
27424;SDS011;15244;49.088;11.886;2022-12-07T08:42:11;17.60;;;12.35;;
27424;SDS011;15244;49.088;11.886;2022-12-07T08:47:24;20.88;;;13.60;;
27424;SDS011;15244;49.088;11.886;2022-12-07T08:52:30;16.83;;;12.70;;
27424;SDS011;15244;49.088;11.886;2022-12-07T08:57:37;15.18;;;12.00;;
27424;SDS011;15244;49.088;11.886;2022-12-07T09:02:43;15.30;;;12.18;;
27424;SDS011;15244;49.088;11.886;2022-12-07T09:07:48;16.33;;;12.68;;
27424;SDS011;15244;49.088;11.886;2022-12-07T09:13:00;17.10;;;13.57;;
27424;SDS011;15244;49.088;11.886;2022-12-07T09:18:04;17.02;;;12.13;;
27424;SDS011;15244;49.088;11.886;2022-12-07T09:23:07;17.15;;;12.45;;
27424;SDS011;15244;49.088;11.886;2022-12-07T09:28:08;16.50;;;12.43;;
27424;SDS011;15244;49.088;11.886;2022-12-07T09:33:13;15.35;;;12.48;;
27424;SDS011;15244;49.088;11.886;2022-12-07T09:38:21;17.10;;;13.25;;
27424;SDS011;15244;49.088;11.886;2022-12-07T09:43:35;15.85;;;12.68;;
27424;SDS011;15244;49.088;11.886;2022-12-07T09:48:47;16.88;;;12.90;;
27424;SDS011;15244;49.088;11.886;2022-12-07T09:53:52;16.88;;;12.88;;
27424;SDS011;15244;49.088;11.886;2022-12-07T09:58:59;18.85;;;13.38;;
27424;SDS011;15244;49.088;11.886;2022-12-07T10:04:16;17.80;;;13.05;;
27424;SDS011;15244;49.088;11.886;2022-12-07T10:09:38;16.60;;;12.80;;
27424;SDS011;15244;49.088;11.886;2022-12-07T10:14:55;15.90;;;12.75;;
27424;SDS011;15244;49.088;11.886;2022-12-07T10:20:20;16.77;;;12.35;;
27424;SDS011;15244;49.088;11.886;2022-12-07T10:25:30;17.73;;;12.93;;
27424;SDS011;15244;49.088;11.886;2022-12-07T10:35:57;15.95;;;12.85;;
27424;SDS011;15244;49.088;11.886;2022-12-07T10:41:04;15.05;;;12.27;;
27424;SDS011;15244;49.088;11.886;2022-12-07T10:46:43;15.95;;;12.45;;
27424;SDS011;15244;49.088;11.886;2022-12-07T11:02:40;16.02;;;11.88;;
27424;SDS011;15244;49.088;11.886;2022-12-07T11:13:22;16.45;;;10.95;;
27424;SDS011;15244;49.088;11.886;2022-12-07T11:24:17;15.45;;;11.18;;
27424;SDS011;15244;49.088;11.886;2022-12-07T11:40:03;15.05;;;10.00;;
27424;SDS011;15244;49.088;11.886;2022-12-07T11:45:19;12.48;;;9.57;;
27424;SDS011;15244;49.088;11.886;2022-12-07T11:50:40;10.77;;;8.68;;
27424;SDS011;15244;49.088;11.886;2022-12-07T12:01:16;9.18;;;7.97;;
27424;SDS011;15244;49.088;11.886;2022-12-07T12:06:34;10.70;;;8.30;;
27424;SDS011;15244;49.088;11.886;2022-12-07T12:17:30;10.23;;;8.40;;
27424;SDS011;15244;49.088;11.886;2022-12-07T12:34:03;9.70;;;7.95;;
27424;SDS011;15244;49.088;11.886;2022-12-07T12:39:26;10.75;;;9.02;;
27424;SDS011;15244;49.088;11.886;2022-12-07T12:49:39;10.77;;;8.65;;
27424;SDS011;15244;49.088;11.886;2022-12-07T12:54:57;10.10;;;8.00;;
27424;SDS011;15244;49.088;11.886;2022-12-07T13:05:29;12.57;;;9.13;;
27424;SDS011;15244;49.088;11.886;2022-12-07T13:15:45;10.20;;;8.20;;
27424;SDS011;15244;49.088;11.886;2022-12-07T13:36:50;8.73;;;7.53;;
27424;SDS011;15244;49.088;11.886;2022-12-07T13:41:57;10.32;;;8.43;;
27424;SDS011;15244;49.088;11.886;2022-12-07T13:52:28;9.63;;;8.20;;
27424;SDS011;15244;49.088;11.886;2022-12-07T13:57:38;10.00;;;8.30;;
27424;SDS011;15244;49.088;11.886;2022-12-07T14:18:43;11.00;;;8.00;;
27424;SDS011;15244;49.088;11.886;2022-12-07T14:23:45;10.00;;;7.40;;
27424;SDS011;15244;49.088;11.886;2022-12-07T14:34:41;8.90;;;7.65;;
27424;SDS011;15244;49.088;11.886;2022-12-07T14:39:53;9.07;;;7.22;;
27424;SDS011;15244;49.088;11.886;2022-12-07T14:44:55;7.65;;;6.63;;
27424;SDS011;15244;49.088;11.886;2022-12-07T14:50:15;6.75;;;6.15;;
27424;SDS011;15244;49.088;11.886;2022-12-07T14:55:29;10.25;;;6.90;;
27424;SDS011;15244;49.088;11.886;2022-12-07T15:00:33;6.25;;;5.65;;
27424;SDS011;15244;49.088;11.886;2022-12-07T15:05:40;6.57;;;5.97;;
27424;SDS011;15244;49.088;11.886;2022-12-07T15:10:47;6.32;;;5.60;;
27424;SDS011;15244;49.088;11.886;2022-12-07T15:15:59;7.68;;;6.80;;
27424;SDS011;15244;49.088;11.886;2022-12-07T15:21:03;7.00;;;6.30;;
27424;SDS011;15244;49.088;11.886;2022-12-07T15:26:18;5.13;;;4.63;;
27424;SDS011;15244;49.088;11.886;2022-12-07T15:31:25;7.47;;;6.68;;
27424;SDS011;15244;49.088;11.886;2022-12-07T15:36:49;6.78;;;6.10;;
27424;SDS011;15244;49.088;11.886;2022-12-07T15:41:51;7.63;;;6.93;;
27424;SDS011;15244;49.088;11.886;2022-12-07T15:47:00;6.63;;;6.03;;
27424;SDS011;15244;49.088;11.886;2022-12-07T15:52:09;8.48;;;6.55;;
27424;SDS011;15244;49.088;11.886;2022-12-07T15:57:13;15.73;;;9.88;;
27424;SDS011;15244;49.088;11.886;2022-12-07T16:02:15;7.28;;;6.65;;
27424;SDS011;15244;49.088;11.886;2022-12-07T16:07:19;9.27;;;8.25;;
27424;SDS011;15244;49.088;11.886;2022-12-07T16:12:20;7.47;;;6.72;;
27424;SDS011;15244;49.088;11.886;2022-12-07T16:17:25;6.97;;;6.38;;
27424;SDS011;15244;49.088;11.886;2022-12-07T16:22:33;7.68;;;6.45;;
27424;SDS011;15244;49.088;11.886;2022-12-07T16:27:44;7.32;;;6.63;;
27424;SDS011;15244;49.088;11.886;2022-12-07T16:32:51;7.88;;;6.78;;
27424;SDS011;15244;49.088;11.886;2022-12-07T16:37:56;7.18;;;6.57;;
27424;SDS011;15244;49.088;11.886;2022-12-07T16:43:00;8.80;;;7.90;;
27424;SDS011;15244;49.088;11.886;2022-12-07T16:48:02;8.55;;;7.68;;
27424;SDS011;15244;49.088;11.886;2022-12-07T16:53:18;7.72;;;7.03;;
27424;SDS011;15244;49.088;11.886;2022-12-07T16:58:22;8.50;;;7.60;;
27424;SDS011;15244;49.088;11.886;2022-12-07T17:03:29;8.25;;;7.20;;
27424;SDS011;15244;49.088;11.886;2022-12-07T17:08:39;8.48;;;7.68;;
27424;SDS011;15244;49.088;11.886;2022-12-07T17:13:42;8.57;;;7.68;;
27424;SDS011;15244;49.088;11.886;2022-12-07T17:19:16;8.63;;;7.78;;
27424;SDS011;15244;49.088;11.886;2022-12-07T17:24:17;8.98;;;8.07;;
27424;SDS011;15244;49.088;11.886;2022-12-07T17:29:22;9.02;;;7.97;;
27424;SDS011;15244;49.088;11.886;2022-12-07T17:34:32;11.05;;;8.00;;
27424;SDS011;15244;49.088;11.886;2022-12-07T17:39:39;9.90;;;8.02;;
27424;SDS011;15244;49.088;11.886;2022-12-07T17:44:40;9.23;;;8.32;;
27424;SDS011;15244;49.088;11.886;2022-12-07T17:49:45;10.25;;;8.30;;
27424;SDS011;15244;49.088;11.886;2022-12-07T17:54:47;9.80;;;8.77;;
27424;SDS011;15244;49.088;11.886;2022-12-07T17:59:52;9.68;;;8.68;;
27424;SDS011;15244;49.088;11.886;2022-12-07T18:04:58;9.80;;;8.73;;
27424;SDS011;15244;49.088;11.886;2022-12-07T18:10:02;9.82;;;8.82;;
27424;SDS011;15244;49.088;11.886;2022-12-07T18:15:24;9.90;;;8.90;;
27424;SDS011;15244;49.088;11.886;2022-12-07T18:20:28;10.32;;;8.98;;
27424;SDS011;15244;49.088;11.886;2022-12-07T18:25:35;12.90;;;9.50;;
27424;SDS011;15244;49.088;11.886;2022-12-07T18:30:42;10.90;;;9.00;;
27424;SDS011;15244;49.088;11.886;2022-12-07T18:36:11;10.82;;;9.70;;
27424;SDS011;15244;49.088;11.886;2022-12-07T18:41:23;11.00;;;9.35;;
27424;SDS011;15244;49.088;11.886;2022-12-07T18:46:29;10.52;;;9.43;;
27424;SDS011;15244;49.088;11.886;2022-12-07T18:51:31;13.63;;;12.32;;
27424;SDS011;15244;49.088;11.886;2022-12-07T18:56:37;14.63;;;10.52;;
27424;SDS011;15244;49.088;11.886;2022-12-07T19:01:53;11.82;;;10.13;;
27424;SDS011;15244;49.088;11.886;2022-12-07T19:06:57;11.43;;;9.73;;
27424;SDS011;15244;49.088;11.886;2022-12-07T19:11:59;12.10;;;10.20;;
27424;SDS011;15244;49.088;11.886;2022-12-07T19:17:09;11.35;;;9.40;;
27424;SDS011;15244;49.088;11.886;2022-12-07T19:22:18;13.43;;;11.15;;
27424;SDS011;15244;49.088;11.886;2022-12-07T19:27:23;13.05;;;10.23;;
27424;SDS011;15244;49.088;11.886;2022-12-07T19:32:30;14.18;;;11.23;;
27424;SDS011;15244;49.088;11.886;2022-12-07T19:37:32;13.35;;;10.93;;
27424;SDS011;15244;49.088;11.886;2022-12-07T19:42:37;12.75;;;11.25;;
27424;SDS011;15244;49.088;11.886;2022-12-07T19:47:38;14.35;;;11.27;;
27424;SDS011;15244;49.088;11.886;2022-12-07T19:52:40;13.60;;;10.98;;
27424;SDS011;15244;49.088;11.886;2022-12-07T19:57:48;36.60;;;24.70;;
27424;SDS011;15244;49.088;11.886;2022-12-07T20:02:52;16.30;;;12.23;;
27424;SDS011;15244;49.088;11.886;2022-12-07T20:07:57;15.25;;;11.85;;
27424;SDS011;15244;49.088;11.886;2022-12-07T20:13:07;14.95;;;12.35;;
27424;SDS011;15244;49.088;11.886;2022-12-07T20:18:30;15.52;;;12.48;;
27424;SDS011;15244;49.088;11.886;2022-12-07T20:23:34;15.45;;;12.25;;
27424;SDS011;15244;49.088;11.886;2022-12-07T20:28:41;15.40;;;12.52;;
27424;SDS011;15244;49.088;11.886;2022-12-07T20:33:49;15.95;;;12.13;;
27424;SDS011;15244;49.088;11.886;2022-12-07T20:38:57;15.23;;;11.95;;
27424;SDS011;15244;49.088;11.886;2022-12-07T20:44:01;18.25;;;11.48;;
27424;SDS011;15244;49.088;11.886;2022-12-07T20:49:05;17.77;;;12.63;;
27424;SDS011;15244;49.088;11.886;2022-12-07T20:54:14;13.10;;;11.23;;
27424;SDS011;15244;49.088;11.886;2022-12-07T20:59:25;16.90;;;12.25;;
27424;SDS011;15244;49.088;11.886;2022-12-07T21:04:46;15.10;;;10.68;;
27424;SDS011;15244;49.088;11.886;2022-12-07T21:09:48;17.80;;;11.20;;
27424;SDS011;15244;49.088;11.886;2022-12-07T21:14:59;16.58;;;11.60;;
27424;SDS011;15244;49.088;11.886;2022-12-07T21:20:09;16.07;;;12.27;;
27424;SDS011;15244;49.088;11.886;2022-12-07T21:25:11;16.27;;;12.23;;
27424;SDS011;15244;49.088;11.886;2022-12-07T21:30:17;16.90;;;11.98;;
27424;SDS011;15244;49.088;11.886;2022-12-07T21:35:19;16.73;;;12.35;;
27424;SDS011;15244;49.088;11.886;2022-12-07T21:40:21;16.05;;;12.25;;
27424;SDS011;15244;49.088;11.886;2022-12-07T21:45:24;14.73;;;11.90;;
27424;SDS011;15244;49.088;11.886;2022-12-07T21:50:27;18.42;;;13.45;;
27424;SDS011;15244;49.088;11.886;2022-12-07T21:55:31;17.02;;;13.30;;
27424;SDS011;15244;49.088;11.886;2022-12-07T22:00:42;15.25;;;11.63;;
27424;SDS011;15244;49.088;11.886;2022-12-07T22:05:50;17.00;;;11.68;;
27424;SDS011;15244;49.088;11.886;2022-12-07T22:10:59;15.07;;;11.43;;
27424;SDS011;15244;49.088;11.886;2022-12-07T22:16:11;15.38;;;12.10;;
27424;SDS011;15244;49.088;11.886;2022-12-07T22:21:18;15.88;;;11.05;;
27424;SDS011;15244;49.088;11.886;2022-12-07T22:26:20;17.77;;;13.10;;
27424;SDS011;15244;49.088;11.886;2022-12-07T22:31:30;18.97;;;13.50;;
27424;SDS011;15244;49.088;11.886;2022-12-07T22:36:39;19.63;;;12.10;;
27424;SDS011;15244;49.088;11.886;2022-12-07T22:41:41;15.38;;;11.93;;
27424;SDS011;15244;49.088;11.886;2022-12-07T22:46:43;13.82;;;10.48;;
27424;SDS011;15244;49.088;11.886;2022-12-07T22:51:49;13.30;;;10.68;;
27424;SDS011;15244;49.088;11.886;2022-12-07T22:56:58;13.40;;;11.65;;
27424;SDS011;15244;49.088;11.886;2022-12-07T23:02:02;12.27;;;10.98;;
27424;SDS011;15244;49.088;11.886;2022-12-07T23:07:07;13.85;;;11.25;;
27424;SDS011;15244;49.088;11.886;2022-12-07T23:12:09;15.07;;;11.13;;
27424;SDS011;15244;49.088;11.886;2022-12-07T23:17:29;14.05;;;11.25;;
27424;SDS011;15244;49.088;11.886;2022-12-07T23:22:37;16.48;;;12.63;;
27424;SDS011;15244;49.088;11.886;2022-12-07T23:27:43;15.50;;;11.60;;
27424;SDS011;15244;49.088;11.886;2022-12-07T23:32:47;15.82;;;11.68;;
27424;SDS011;15244;49.088;11.886;2022-12-07T23:37:51;14.32;;;11.48;;
27424;SDS011;15244;49.088;11.886;2022-12-07T23:43:00;14.60;;;11.43;;
27424;SDS011;15244;49.088;11.886;2022-12-07T23:48:08;14.05;;;10.75;;
27424;SDS011;15244;49.088;11.886;2022-12-07T23:53:12;14.13;;;11.32;;
27424;SDS011;15244;49.088;11.886;2022-12-07T23:58:14;16.23;;;12.07;;
